Погода Гуалегуайчуна 2 недели

Энтре-Риос, Аргентина

04 - 16 февраля
  • 04февраля
    Сегодня
    +15°
    +29°
    Ясно и безоблачно
    ВремяПогодаТемператураВлажностьДавлениеВетер, м/сВероятность осадков
    00:00Ясно и безоблачно+20°C80 %760 мм4.1 м/с5 %
    03:00Ясно и безоблачно+18°C86 %760 мм2.5 м/с5 %
    06:00Практически безоблачно+17°C91 %760 мм1.2 м/с2 %
    09:00Практически безоблачно+20°C72 %761 мм2.8 м/с28 %
    12:00Ясно и безоблачно+24°C48 %761 мм4.7 м/с31 %
    15:00Ясно и безоблачно+26°C38 %760 мм5.4 м/с5 %
    18:00Ясно и безоблачно+28°C43 %760 мм4.6 м/с5 %
    21:00Ясно и безоблачно+21°C56 %760 мм1.4 м/с5 %
  • 05февраля
    Воскресенье
    +17°
    +32°
    Ясно и безоблачно
    ВремяПогодаТемператураВлажностьДавлениеВетер, м/сВероятность осадков
    00:00Ясно и безоблачно+20°C59 %760 мм0.6 м/с5 %
    03:00Ясно и безоблачно+17°C78 %759 мм2.0 м/с5 %
    06:00Ясно и безоблачно+15°C76 %759 мм0.1 м/с5 %
    09:00Ясно и безоблачно+20°C59 %760 мм1.2 м/с5 %
    12:00Ясно и безоблачно+24°C37 %759 мм2.1 м/с5 %
    15:00Ясно и безоблачно+28°C31 %757 мм2.4 м/с5 %
    18:00Ясно и безоблачно+31°C31 %756 мм1.6 м/с5 %
    21:00Ясно и безоблачно+25°C50 %756 мм1.7 м/с5 %
  • 06февраля
    Понедельник
    +20°
    +36°
    Практически безоблачно
    ВремяПогодаТемператураВлажностьДавлениеВетер, м/сВероятность осадков
    00:00Ясно и безоблачно+22°C54 %756 мм3.1 м/с5 %
    03:00Ясно и безоблачно+19°C60 %755 мм2.2 м/с5 %
    06:00Облачно с прояснениями+17°C69 %756 мм1.3 м/с5 %
    09:00Ясно и безоблачно+23°C47 %757 мм2.7 м/с5 %
    12:00Практически безоблачно+29°C30 %757 мм3.5 м/с5 %
    15:00Практически безоблачно+31°C29 %756 мм2.7 м/с5 %
    18:00Ясно и безоблачно+35°C30 %755 мм1.9 м/с5 %
    21:00Ясно и безоблачно+28°C43 %756 мм1.9 м/с5 %
  • 07февраля
    Вторник
    +20°
    +38°
    Ясно и безоблачно
    ВремяПогодаТемператураВлажностьДавлениеВетер, м/сВероятность осадков
    00:00Небольшая облачность+24°C51 %756 мм2.0 м/с13 %
    03:00Облачно с прояснениями+21°C57 %756 мм3.7 м/с17 %
    06:00Облачно с прояснениями+20°C58 %756 мм1.0 м/с17 %
    09:00Ясно и безоблачно+25°C46 %757 мм3.0 м/с13 %
    12:00Ясно и безоблачно+32°C29 %757 мм4.3 м/с3 %
    15:00Ясно и безоблачно+34°C27 %755 мм4.7 м/с5 %
    18:00Небольшая облачность+36°C29 %754 мм3.7 м/с5 %
    21:00Ясно и безоблачно+29°C42 %755 мм2.2 м/с3 %
Мы используем cookies
Соглашаюсь